createdAt,value
2018-01-04T00:00:57.822Z,870.23
2018-01-04T00:01:57.873Z,870.25
2018-01-04T00:02:57.866Z,870.27
2018-01-04T00:03:57.999Z,870.30
2018-01-04T00:04:57.961Z,870.28
2018-01-04T00:05:57.965Z,870.29
2018-01-04T00:06:58.014Z,870.29
2018-01-04T00:07:58.060Z,870.30
2018-01-04T00:08:58.079Z,870.31
2018-01-04T00:09:58.134Z,870.31
2018-01-04T00:10:58.123Z,870.35
2018-01-04T00:11:58.185Z,870.36
2018-01-04T00:12:58.236Z,870.33
2018-01-04T00:13:58.237Z,870.37
2018-01-04T00:14:58.282Z,870.36
2018-01-04T00:15:58.319Z,870.37
2018-01-04T00:16:58.318Z,870.41
2018-01-04T00:17:58.367Z,870.44
2018-01-04T00:18:58.423Z,870.42
2018-01-04T00:19:58.409Z,870.45
2018-01-04T00:20:58.469Z,870.48
2018-01-04T00:21:58.513Z,870.48
2018-01-04T00:22:58.513Z,870.47
2018-01-04T00:23:58.565Z,870.46
2018-01-04T00:24:58.602Z,870.48
2018-01-04T00:25:58.625Z,870.45
2018-01-04T00:26:58.683Z,870.51
2018-01-04T00:27:58.754Z,870.48
2018-01-04T00:28:58.753Z,870.46
2018-01-04T00:29:58.801Z,870.47
2018-01-04T00:30:58.814Z,870.48
2018-01-04T00:31:58.845Z,870.51
2018-01-04T00:32:58.874Z,870.49
2018-01-04T00:33:58.929Z,870.52
2018-01-04T00:34:58.916Z,870.54
2018-01-04T00:35:58.982Z,870.52
2018-01-04T00:36:59.005Z,870.54
2018-01-04T00:37:59.045Z,870.57
2018-01-04T00:38:59.100Z,870.57
2018-01-04T00:39:59.134Z,870.57
2018-01-04T00:40:59.123Z,870.59
2018-01-04T00:41:59.185Z,870.60
2018-01-04T00:42:59.218Z,870.60
2018-01-04T00:43:59.237Z,870.63
2018-01-04T00:44:59.263Z,870.62
2018-01-04T00:45:59.324Z,870.63
2018-01-04T00:46:59.353Z,870.70
2018-01-04T00:47:59.368Z,870.69
2018-01-04T00:48:59.430Z,870.70
2018-01-04T00:49:59.421Z,870.72
2018-01-04T00:50:59.472Z,870.75
2018-01-04T00:51:59.534Z,870.75
2018-01-04T00:52:59.534Z,870.78
2018-01-04T00:53:59.595Z,870.79
2018-01-04T00:54:59.647Z,870.81
2018-01-04T00:55:59.643Z,870.82
2018-01-04T00:56:59.696Z,870.85
2018-01-04T00:57:59.747Z,870.84
2018-01-04T00:58:59.726Z,870.82
2018-01-04T00:59:59.780Z,870.85
2018-01-04T01:00:59.845Z,870.90
2018-01-04T01:01:59.840Z,870.84
2018-01-04T01:02:59.886Z,870.86
2018-01-04T01:03:59.920Z,870.86
2018-01-04T01:04:59.941Z,870.86
2018-01-04T01:05:59.989Z,870.92
2018-01-04T01:07:00.032Z,870.89
2018-01-04T01:08:00.041Z,870.90
2018-01-04T01:09:00.072Z,870.91
2018-01-04T01:10:00.149Z,870.90
2018-01-04T01:11:00.116Z,870.96
2018-01-04T01:12:00.201Z,871.00
2018-01-04T01:13:00.204Z,871.00
2018-01-04T01:14:00.223Z,871.02
2018-01-04T01:15:00.242Z,871.03
2018-01-04T01:16:00.312Z,871.08
2018-01-04T01:17:00.334Z,871.06
2018-01-04T01:18:00.365Z,871.05
2018-01-04T01:19:00.433Z,871.05
2018-01-04T01:20:00.422Z,871.10
2018-01-04T01:21:00.493Z,871.14
2018-01-04T01:22:00.529Z,871.13
2018-01-04T01:23:00.524Z,871.09
2018-01-04T01:24:00.571Z,871.13
2018-01-04T01:25:00.613Z,871.16
2018-01-04T01:26:00.609Z,871.16
2018-01-04T01:27:00.661Z,871.16
2018-01-04T01:28:00.738Z,871.17
2018-01-04T01:29:00.709Z,871.20
2018-01-04T01:30:00.765Z,871.23
2018-01-04T01:31:00.782Z,871.25
2018-01-04T01:32:00.815Z,871.27
2018-01-04T01:33:00.865Z,871.28
2018-01-04T01:34:00.911Z,871.31
2018-01-04T01:35:00.897Z,871.30
2018-01-04T01:36:00.975Z,871.32
2018-01-04T01:37:01.012Z,871.34
2018-01-04T01:38:01.001Z,871.36
2018-01-04T01:39:01.042Z,871.42
2018-01-04T01:40:01.086Z,871.43
2018-01-04T01:41:01.091Z,871.43
2018-01-04T01:42:01.141Z,871.45
2018-01-04T01:43:01.211Z,871.46
2018-01-04T01:44:01.185Z,871.52
2018-01-04T01:45:01.243Z,871.53
2018-01-04T01:46:01.297Z,871.53
2018-01-04T01:47:01.305Z,871.55
2018-01-04T01:48:01.344Z,871.57
2018-01-04T01:49:01.406Z,871.56
2018-01-04T01:50:01.411Z,871.60
2018-01-04T01:51:01.444Z,871.58
2018-01-04T01:52:01.473Z,871.61
2018-01-04T01:53:01.501Z,871.63
2018-01-04T01:54:01.527Z,871.63
2018-01-04T01:55:01.584Z,871.69
2018-01-04T01:56:01.585Z,871.74
2018-01-04T01:57:01.628Z,871.74
2018-01-04T01:58:01.675Z,871.77
2018-01-04T01:59:01.664Z,871.79
2018-01-04T02:00:01.719Z,871.79
2018-01-04T02:01:01.774Z,871.83
2018-01-04T02:02:01.747Z,871.81
2018-01-04T02:03:01.831Z,871.85
2018-01-04T02:04:01.855Z,871.87
2018-01-04T02:05:01.876Z,871.87
2018-01-04T02:06:01.927Z,871.91
2018-01-04T02:07:01.974Z,871.89
2018-01-04T02:08:01.968Z,871.93
2018-01-04T02:09:02.032Z,871.93
2018-01-04T02:10:02.042Z,871.98
2018-01-04T02:11:02.081Z,872.01
2018-01-04T02:12:02.122Z,872.02
2018-01-04T02:13:02.173Z,872.00
2018-01-04T02:14:02.166Z,872.01
2018-01-04T02:15:02.224Z,872.07
2018-01-04T02:16:02.468Z,872.05
2018-01-04T02:17:02.247Z,872.07
2018-01-04T02:18:02.296Z,872.06
2018-01-04T02:19:02.675Z,872.11
2018-01-04T02:20:02.359Z,872.16
2018-01-04T02:21:02.407Z,872.13
2018-01-04T02:22:02.440Z,872.13
2018-01-04T02:23:02.446Z,872.15
2018-01-04T02:24:02.490Z,872.16
2018-01-04T02:25:02.525Z,872.18
2018-01-04T02:26:02.534Z,872.17
2018-01-04T02:27:02.583Z,872.16
2018-01-04T02:28:02.626Z,872.21
2018-01-04T02:29:03.016Z,872.22
2018-01-04T02:30:02.690Z,872.24
2018-01-04T02:31:02.746Z,872.24
2018-01-04T02:32:02.726Z,872.26
2018-01-04T02:33:02.781Z,872.27
2018-01-04T02:34:02.832Z,872.32
2018-01-04T02:35:02.833Z,872.25
2018-01-04T02:36:02.864Z,872.30
2018-01-04T02:37:02.889Z,872.33
2018-01-04T02:38:02.907Z,872.32
2018-01-04T02:39:02.979Z,872.35
2018-01-04T02:40:03.033Z,872.39
2018-01-04T02:41:03.022Z,872.38
2018-01-04T02:42:03.072Z,872.38
2018-01-04T02:43:03.112Z,872.38
2018-01-04T02:44:03.105Z,872.45
2018-01-04T02:45:03.277Z,872.40
2018-01-04T02:46:03.224Z,872.39
2018-01-04T02:47:03.210Z,872.42
2018-01-04T02:48:03.243Z,872.48
2018-01-04T02:49:03.290Z,872.45
2018-01-04T02:50:03.343Z,872.50
2018-01-04T02:51:03.295Z,872.51
2018-01-04T02:52:03.352Z,872.51
2018-01-04T02:53:03.427Z,872.55
2018-01-04T02:54:03.423Z,872.60
2018-01-04T02:55:03.470Z,872.62
2018-01-04T02:56:03.497Z,872.65
2018-01-04T02:57:03.516Z,872.63
2018-01-04T02:58:03.560Z,872.65
2018-01-04T02:59:03.597Z,872.66
2018-01-04T03:00:03.659Z,872.63
2018-01-04T03:01:03.654Z,872.68
2018-01-04T03:02:03.705Z,872.69
2018-01-04T03:03:03.710Z,872.71
2018-01-04T03:04:03.736Z,872.71
2018-01-04T03:05:03.797Z,872.75
2018-01-04T03:06:03.880Z,872.75
2018-01-04T03:07:03.845Z,872.79
2018-01-04T03:08:03.873Z,872.81
2018-01-04T03:09:03.885Z,872.78
2018-01-04T03:10:03.938Z,872.82
2018-01-04T03:11:03.987Z,872.81
2018-01-04T03:12:03.960Z,872.84
2018-01-04T03:13:04.041Z,872.85
2018-01-04T03:14:04.064Z,872.86
2018-01-04T03:15:04.066Z,872.90
2018-01-04T03:16:04.123Z,872.98
2018-01-04T03:17:04.180Z,872.95
2018-01-04T03:18:04.173Z,872.99
2018-01-04T03:19:04.222Z,873.03
2018-01-04T03:20:04.255Z,873.00
2018-01-04T03:21:04.265Z,873.03
2018-01-04T03:22:04.309Z,873.07
2018-01-04T03:23:04.356Z,873.07
2018-01-04T03:24:04.368Z,873.11
2018-01-04T03:25:04.401Z,873.07
2018-01-04T03:26:04.449Z,873.08
2018-01-04T03:27:04.460Z,873.11
2018-01-04T03:28:04.480Z,873.15
2018-01-04T03:29:04.556Z,873.17
2018-01-04T03:30:04.538Z,873.13
2018-01-04T03:31:04.590Z,873.17
2018-01-04T03:32:04.652Z,873.17
2018-01-04T03:33:04.631Z,873.18
2018-01-04T03:34:04.693Z,873.14
2018-01-04T03:35:04.744Z,873.17
2018-01-04T03:36:04.729Z,873.15
2018-01-04T03:37:04.775Z,873.16
2018-01-04T03:38:04.823Z,873.13
2018-01-04T03:39:04.825Z,873.15
2018-01-04T03:40:04.889Z,873.17
2018-01-04T03:41:04.918Z,873.18
2018-01-04T03:42:04.906Z,873.22
2018-01-04T03:43:04.967Z,873.21
2018-01-04T03:44:05.021Z,873.25
2018-01-04T03:45:05.024Z,873.27
2018-01-04T03:46:05.070Z,873.28
2018-01-04T03:47:05.107Z,873.30
2018-01-04T03:48:05.138Z,873.27
2018-01-04T03:49:05.168Z,873.28
2018-01-04T03:50:05.219Z,873.26
2018-01-04T03:51:05.199Z,873.31
2018-01-04T03:52:05.239Z,873.31
2018-01-04T03:53:05.298Z,873.28
2018-01-04T03:54:05.331Z,873.30
2018-01-04T03:55:05.341Z,873.30
2018-01-04T03:56:05.382Z,873.32
2018-01-04T03:57:05.425Z,873.31
2018-01-04T03:58:05.423Z,873.28
2018-01-04T03:59:05.467Z,873.29
2018-01-04T04:00:05.644Z,873.31
2018-01-04T04:01:05.529Z,873.32
2018-01-04T04:02:05.577Z,873.30
2018-01-04T04:03:05.623Z,873.30
2018-01-04T04:04:05.628Z,873.32
2018-01-04T04:05:05.664Z,873.31
2018-01-04T04:06:05.714Z,873.32
2018-01-04T04:07:05.733Z,873.29
2018-01-04T04:08:05.761Z,873.27
2018-01-04T04:09:05.815Z,873.29
2018-01-04T04:10:05.810Z,873.28
2018-01-04T04:11:05.859Z,873.27
2018-01-04T04:12:05.911Z,873.27
2018-01-04T04:13:05.901Z,873.27
2018-01-04T04:14:05.961Z,873.27
2018-01-04T04:15:05.983Z,873.26
2018-01-04T04:16:05.992Z,873.23
2018-01-04T04:17:06.041Z,873.23
2018-01-04T04:18:06.096Z,873.22
2018-01-04T04:19:06.095Z,873.17
2018-01-04T04:20:06.145Z,873.20
2018-01-04T04:21:06.191Z,873.23
2018-01-04T04:22:06.183Z,873.18
2018-01-04T04:23:06.238Z,873.19
2018-01-04T04:24:06.256Z,873.15
2018-01-04T04:25:06.290Z,873.15
2018-01-04T04:26:06.333Z,873.14
2018-01-04T04:27:06.340Z,873.11
2018-01-04T04:28:06.397Z,873.13
2018-01-04T04:29:06.425Z,873.13
2018-01-04T04:30:08.348Z,873.13
2018-01-04T04:31:06.491Z,873.12
2018-01-04T04:32:06.530Z,873.12
2018-01-04T04:33:06.530Z,873.11
2018-01-04T04:34:06.575Z,873.16
2018-01-04T04:35:06.633Z,873.13
2018-01-04T04:36:06.628Z,873.09
2018-01-04T04:37:06.668Z,873.12
2018-01-04T04:38:06.706Z,873.14
2018-01-04T04:39:06.728Z,873.10
2018-01-04T04:40:06.768Z,873.08
2018-01-04T04:41:06.811Z,873.05
2018-01-04T04:42:06.811Z,873.04
2018-01-04T04:43:07.062Z,873.03
2018-01-04T04:44:06.909Z,873.01
2018-01-04T04:46:07.141Z,872.99
2018-01-04T04:47:06.996Z,872.98
2018-01-04T04:48:07.041Z,872.96
2018-01-04T04:49:07.035Z,872.98
2018-01-04T04:50:07.082Z,873.00
2018-01-04T04:51:07.127Z,872.96
2018-01-04T04:52:07.139Z,872.96
2018-01-04T04:53:07.176Z,872.99
2018-01-04T04:54:07.223Z,872.98
2018-01-04T04:55:07.216Z,873.00
2018-01-04T04:56:07.267Z,873.00
2018-01-04T04:57:07.315Z,872.97
2018-01-04T04:58:07.315Z,872.93
2018-01-04T04:59:07.377Z,872.98
2018-01-04T05:00:07.414Z,872.91
2018-01-04T05:01:07.408Z,872.90
2018-01-04T05:02:07.467Z,872.85
2018-01-04T05:04:07.538Z,872.88
2018-01-04T05:05:07.539Z,872.84
2018-01-04T05:06:07.588Z,872.86
2018-01-04T05:07:07.632Z,872.81
2018-01-04T05:08:07.630Z,872.82
2018-01-04T05:09:07.701Z,872.81
2018-01-04T05:10:07.743Z,872.83
2018-01-04T05:11:07.740Z,872.80
2018-01-04T05:12:07.987Z,872.79
2018-01-04T05:13:07.833Z,872.80
2018-01-04T05:14:07.820Z,872.81
2018-01-04T05:15:07.875Z,872.74
2018-01-04T05:16:07.919Z,872.77
2018-01-04T05:17:07.919Z,872.76
2018-01-04T05:18:07.969Z,872.74
2018-01-04T05:19:08.026Z,872.74
2018-01-04T05:20:08.015Z,872.74
2018-01-04T05:21:08.070Z,872.75
2018-01-04T05:22:08.124Z,872.69
2018-01-04T05:23:08.122Z,872.71
2018-01-04T05:24:08.171Z,872.67
2018-01-04T05:25:08.284Z,872.65
2018-01-04T05:26:08.271Z,872.61
2018-01-04T05:27:08.259Z,872.61
2018-01-04T05:28:08.306Z,872.59
2018-01-04T05:29:08.307Z,872.59
2018-01-04T05:30:08.362Z,872.56
2018-01-04T05:31:08.398Z,872.55
2018-01-04T05:32:08.400Z,872.53
2018-01-04T05:33:08.449Z,872.52
2018-01-04T05:34:08.508Z,872.45
2018-01-04T05:35:08.497Z,872.45
2018-01-04T05:36:08.748Z,872.45
2018-01-04T05:37:08.598Z,872.45
2018-01-04T05:38:08.801Z,872.43
2018-01-04T05:39:08.644Z,872.39
2018-01-04T05:40:08.742Z,872.37
2018-01-04T05:41:08.693Z,872.37
2018-01-04T05:42:08.743Z,872.34
2018-01-04T05:43:08.779Z,872.30
2018-01-04T05:44:08.780Z,872.27
2018-01-04T05:45:08.845Z,872.27
2018-01-04T05:46:08.877Z,872.27
2018-01-04T05:47:08.877Z,872.24
2018-01-04T05:48:08.928Z,872.21
2018-01-04T05:49:08.971Z,872.22
2018-01-04T05:50:08.981Z,872.18
2018-01-04T05:51:09.034Z,872.17
2018-01-04T05:52:09.070Z,872.13
2018-01-04T05:53:09.073Z,872.09
2018-01-04T05:54:09.132Z,872.09
2018-01-04T05:55:09.184Z,872.09
2018-01-04T05:56:09.166Z,872.10
2018-01-04T05:57:09.219Z,872.10
2018-01-04T05:58:09.266Z,872.06
2018-01-04T05:59:09.274Z,872.09
2018-01-04T06:00:09.326Z,872.02
2018-01-04T06:01:09.374Z,872.02
2018-01-04T06:02:09.362Z,871.98
2018-01-04T06:03:09.426Z,871.99
2018-01-04T06:04:09.473Z,871.95
2018-01-04T06:05:09.474Z,871.92
2018-01-04T06:06:09.526Z,871.92
2018-01-04T06:07:09.564Z,871.90
2018-01-04T06:08:09.564Z,871.91
2018-01-04T06:09:09.877Z,871.88
2018-01-04T06:10:09.667Z,871.91
2018-01-04T06:11:09.658Z,871.87
2018-01-04T06:12:09.711Z,871.85
2018-01-04T06:13:09.759Z,871.83
2018-01-04T06:14:09.757Z,871.83
2018-01-04T06:15:09.806Z,871.85
2018-01-04T06:16:09.850Z,871.76
2018-01-04T06:17:09.847Z,871.80
2018-01-04T06:18:09.902Z,871.80
2018-01-04T06:19:09.977Z,871.75
2018-01-04T06:20:09.948Z,871.73
2018-01-04T06:21:09.992Z,871.71
2018-01-04T06:22:10.934Z,871.69
2018-01-04T06:23:10.053Z,871.65
2018-01-04T06:24:10.097Z,871.66
2018-01-04T06:25:10.187Z,871.68
2018-01-04T06:26:10.152Z,871.60
2018-01-04T06:27:10.190Z,871.62
2018-01-04T06:28:10.246Z,871.60
2018-01-04T06:29:10.242Z,871.61
2018-01-04T06:30:10.293Z,871.61
2018-01-04T06:31:10.332Z,871.58
2018-01-04T06:32:10.334Z,871.54
2018-01-04T06:33:10.401Z,871.52
2018-01-04T06:34:10.434Z,871.54
2018-01-04T06:35:10.426Z,871.45
2018-01-04T06:36:10.482Z,871.45
2018-01-04T06:37:10.537Z,871.42
2018-01-04T06:38:10.536Z,871.41
2018-01-04T06:39:10.586Z,871.41
2018-01-04T06:40:10.636Z,871.36
2018-01-04T06:41:10.627Z,871.36
2018-01-04T06:42:10.685Z,871.33
2018-01-04T06:43:10.924Z,871.31
2018-01-04T06:44:10.724Z,871.29
2018-01-04T06:45:10.790Z,871.29
2018-01-04T06:46:10.832Z,871.25
2018-01-04T06:47:10.830Z,871.24
2018-01-04T06:48:10.882Z,871.19
2018-01-04T06:49:10.918Z,871.15
2018-01-04T06:51:11.006Z,871.13
2018-01-04T06:52:11.029Z,871.10
2018-01-04T06:53:11.054Z,871.09
2018-01-04T06:54:11.056Z,871.06
2018-01-04T06:55:11.116Z,871.07
2018-01-04T06:56:11.207Z,871.06
2018-01-04T06:57:11.147Z,871.04
2018-01-04T06:58:11.203Z,871.03
2018-01-04T06:59:11.263Z,871.02
2018-01-04T07:00:11.260Z,870.97
2018-01-04T07:01:11.296Z,870.95
2018-01-04T07:02:11.355Z,870.93
2018-01-04T07:03:11.352Z,870.93
2018-01-04T07:04:11.407Z,870.86
2018-01-04T07:05:11.445Z,870.83
2018-01-04T07:06:11.455Z,870.79
2018-01-04T07:07:11.496Z,870.81
2018-01-04T07:08:12.741Z,870.80
2018-01-04T07:09:11.590Z,870.80
2018-01-04T07:10:11.581Z,870.76
2018-01-04T07:11:11.636Z,870.71
2018-01-04T07:12:11.762Z,870.70
2018-01-04T07:13:11.682Z,870.71
2018-01-04T07:14:11.737Z,870.70
2018-01-04T07:15:11.791Z,870.72
2018-01-04T07:16:11.773Z,870.65
2018-01-04T07:17:11.959Z,870.60
2018-01-04T07:18:11.871Z,870.53
2018-01-04T07:19:11.882Z,870.53
2018-01-04T07:20:11.927Z,870.55
2018-01-04T07:21:11.982Z,870.51
2018-01-04T07:22:11.979Z,870.48
2018-01-04T07:23:12.228Z,870.46
2018-01-04T07:24:12.096Z,870.48
2018-01-04T07:25:12.075Z,870.45
2018-01-04T07:26:12.169Z,870.40
2018-01-04T07:27:12.176Z,870.37
2018-01-04T07:28:12.180Z,870.38
2018-01-04T07:29:12.225Z,870.31
2018-01-04T07:30:12.270Z,870.33
2018-01-04T07:31:12.260Z,870.30
2018-01-04T07:32:12.313Z,870.25
2018-01-04T07:33:12.358Z,870.20
2018-01-04T07:34:12.361Z,870.18
2018-01-04T07:35:12.423Z,870.21
2018-01-04T07:36:12.458Z,870.17
2018-01-04T07:37:12.457Z,870.11
2018-01-04T07:38:12.522Z,870.07
2018-01-04T07:39:12.566Z,870.02
2018-01-04T07:40:12.561Z,869.99
2018-01-04T07:41:12.619Z,870.00
2018-01-04T07:42:12.972Z,869.99
2018-01-04T07:43:12.658Z,870.01
2018-01-04T07:44:12.715Z,869.95
2018-01-04T07:45:12.763Z,869.97
2018-01-04T07:46:12.766Z,869.95
2018-01-04T07:47:12.818Z,869.88
2018-01-04T07:48:13.119Z,869.87
2018-01-04T07:49:12.859Z,869.85
2018-01-04T07:50:12.912Z,869.86
2018-01-04T07:51:12.965Z,869.87
2018-01-04T07:52:12.963Z,869.87
2018-01-04T07:53:13.004Z,869.84
2018-01-04T07:54:13.093Z,869.87
2018-01-04T07:55:13.060Z,869.83
2018-01-04T07:56:13.212Z,869.80
2018-01-04T07:57:13.156Z,869.81
2018-01-04T07:58:13.151Z,869.80
2018-01-04T07:59:13.204Z,869.71
2018-01-04T08:00:13.249Z,869.73
2018-01-04T08:01:13.261Z,869.73
2018-01-04T08:02:13.503Z,869.72
2018-01-04T08:03:13.346Z,869.68
2018-01-04T08:04:13.346Z,869.62
2018-01-04T08:05:13.400Z,869.61
2018-01-04T08:06:13.444Z,869.57
2018-01-04T08:07:13.451Z,869.58
2018-01-04T08:08:13.507Z,869.57
2018-01-04T08:09:13.546Z,869.59
2018-01-04T08:10:13.549Z,869.58
2018-01-04T08:11:13.574Z,869.56
2018-01-04T08:12:13.629Z,869.55
2018-01-04T08:13:13.672Z,869.55
2018-01-04T08:14:13.675Z,869.53
2018-01-04T08:15:13.740Z,869.51
2018-01-04T08:16:13.773Z,869.50
2018-01-04T08:17:13.794Z,869.49
2018-01-04T08:18:13.829Z,869.46
2018-01-04T08:19:13.872Z,869.48
2018-01-04T08:20:13.876Z,869.43
2018-01-04T08:21:13.945Z,869.44
2018-01-04T08:22:13.979Z,869.43
2018-01-04T08:23:13.975Z,869.41
2018-01-04T08:24:14.037Z,869.43
2018-01-04T08:25:14.079Z,869.41
2018-01-04T08:26:14.069Z,869.41
2018-01-04T08:27:14.121Z,869.41
2018-01-04T08:28:14.185Z,869.38
2018-01-04T08:29:14.468Z,869.39
2018-01-04T08:30:14.229Z,869.36
2018-01-04T08:31:14.465Z,869.38
2018-01-04T08:32:14.275Z,869.38
2018-01-04T08:33:14.330Z,869.35
2018-01-04T08:34:14.361Z,869.35
2018-01-04T08:35:14.377Z,869.31
2018-01-04T08:36:14.428Z,869.27
2018-01-04T08:37:14.462Z,869.21
2018-01-04T08:38:14.462Z,869.23
2018-01-04T08:39:14.517Z,869.23
2018-01-04T08:40:14.617Z,869.21
2018-01-04T08:41:14.575Z,869.19
2018-01-04T08:42:14.624Z,869.18
2018-01-04T08:43:14.641Z,869.14
2018-01-04T08:44:14.676Z,869.19
2018-01-04T08:45:14.719Z,869.13
2018-01-04T08:46:14.725Z,869.14
2018-01-04T08:47:14.774Z,869.16
2018-01-04T08:48:14.823Z,869.13
2018-01-04T08:49:14.823Z,869.14
2018-01-04T08:50:15.078Z,869.15
2018-01-04T08:51:14.940Z,869.13
2018-01-04T08:52:14.933Z,869.11
2018-01-04T08:53:14.989Z,869.10
2018-01-04T08:54:15.021Z,869.09
2018-01-04T08:55:15.039Z,869.09
2018-01-04T08:56:15.078Z,869.06
2018-01-04T08:57:15.119Z,869.07
2018-01-04T08:58:15.134Z,869.05
2018-01-04T08:59:15.332Z,869.02
2018-01-04T09:00:15.218Z,869.01
2018-01-04T09:01:15.231Z,869.03
2018-01-04T09:02:15.267Z,869.02
2018-01-04T09:03:15.318Z,868.99
2018-01-04T09:04:15.421Z,869.00
2018-01-04T09:05:15.372Z,868.96
2018-01-04T09:06:15.414Z,868.97
2018-01-04T09:07:15.432Z,868.97
2018-01-04T09:08:15.475Z,868.96
2018-01-04T09:09:15.511Z,868.94
2018-01-04T09:10:15.514Z,868.95
2018-01-04T09:11:15.780Z,868.95
2018-01-04T09:12:15.630Z,868.96
2018-01-04T09:13:15.626Z,868.95
2018-01-04T09:14:15.680Z,868.97
2018-01-04T09:15:15.715Z,868.93
2018-01-04T09:16:15.715Z,868.99
2018-01-04T09:17:15.920Z,868.94
2018-01-04T09:18:15.808Z,868.93
2018-01-04T09:19:15.817Z,868.92
2018-01-04T09:20:15.875Z,868.90
2018-01-04T09:21:15.905Z,868.90
2018-01-04T09:22:16.132Z,868.89
2018-01-04T09:23:15.968Z,868.89
2018-01-04T09:24:16.011Z,868.88
2018-01-04T09:25:16.011Z,868.92
2018-01-04T09:26:16.066Z,868.88
2018-01-04T09:27:16.120Z,868.87
2018-01-04T09:28:16.113Z,868.87
2018-01-04T09:29:16.775Z,868.84
2018-01-04T09:30:16.207Z,868.83
2018-01-04T09:31:16.221Z,868.84
2018-01-04T09:32:16.278Z,868.81
2018-01-04T09:33:16.319Z,868.81
2018-01-04T09:34:16.315Z,868.84
2018-01-04T09:35:16.360Z,868.78
2018-01-04T09:36:16.418Z,868.76
2018-01-04T09:37:16.411Z,868.82
2018-01-04T09:38:16.466Z,868.75
2018-01-04T09:39:16.518Z,868.74
2018-01-04T09:40:16.518Z,868.72
2018-01-04T09:41:16.572Z,868.73
2018-01-04T09:42:16.607Z,868.71
2018-01-04T09:43:16.609Z,868.69
2018-01-04T09:44:16.657Z,868.66
2018-01-04T09:45:16.761Z,868.70
2018-01-04T09:46:16.715Z,868.68
2018-01-04T09:47:16.758Z,868.67
2018-01-04T09:48:16.804Z,868.63
2018-01-04T09:49:16.810Z,868.64
2018-01-04T09:50:16.871Z,868.68
2018-01-04T09:51:17.912Z,868.63
2018-01-04T09:52:16.918Z,868.62
2018-01-04T09:53:16.956Z,868.69
2018-01-04T09:54:17.010Z,868.69
2018-01-04T09:55:17.004Z,868.66
2018-01-04T09:57:17.201Z,868.65
2018-01-04T09:58:17.625Z,868.69
2018-01-04T09:59:17.136Z,868.65
2018-01-04T10:00:17.190Z,868.66
2018-01-04T10:02:17.272Z,868.66
2018-01-04T10:03:17.282Z,868.68
2018-01-04T10:04:17.335Z,868.65
2018-01-04T10:05:17.380Z,868.67
2018-01-04T10:06:17.368Z,868.67
2018-01-04T10:07:17.434Z,868.67
2018-01-04T10:08:17.470Z,868.68
2018-01-04T10:09:17.466Z,868.67
2018-01-04T10:10:17.519Z,868.67
2018-01-04T10:11:17.585Z,868.67
2018-01-04T10:12:17.577Z,868.70
2018-01-04T10:13:17.628Z,868.69
2018-01-04T10:14:17.672Z,868.69
2018-01-04T10:15:17.754Z,868.68
2018-01-04T10:16:17.717Z,868.69
2018-01-04T10:17:17.764Z,868.72
2018-01-04T10:18:17.769Z,868.70
2018-01-04T10:19:17.829Z,868.69
2018-01-04T10:20:17.877Z,868.66
2018-01-04T10:21:17.882Z,868.69
2018-01-04T10:22:17.927Z,868.68
2018-01-04T10:23:18.263Z,868.69
2018-01-04T10:24:17.973Z,868.68
2018-01-04T10:25:18.022Z,868.67
2018-01-04T10:26:18.064Z,868.71
2018-01-04T10:27:18.177Z,868.75
2018-01-04T10:28:18.116Z,868.72
2018-01-04T10:29:18.217Z,868.71
2018-01-04T10:30:18.182Z,868.73
2018-01-04T10:31:18.223Z,868.69
2018-01-04T10:32:18.262Z,868.73
2018-01-04T10:33:18.271Z,868.68
2018-01-04T10:34:18.425Z,868.71
2018-01-04T10:35:18.369Z,868.70
2018-01-04T10:36:18.365Z,868.72
2018-01-04T10:37:18.457Z,868.73
2018-01-04T10:38:18.465Z,868.73
2018-01-04T10:39:18.474Z,868.71
2018-01-04T10:40:18.513Z,868.73
2018-01-04T10:41:18.572Z,868.76
2018-01-04T10:42:18.566Z,868.74
2018-01-04T10:43:20.485Z,868.75
2018-01-04T10:44:18.670Z,868.75
2018-01-04T10:45:18.660Z,868.75
2018-01-04T10:46:18.714Z,868.77
2018-01-04T10:47:18.763Z,868.79
2018-01-04T10:48:18.766Z,868.79
2018-01-04T10:49:18.828Z,868.78
2018-01-04T10:50:18.870Z,868.78
2018-01-04T10:51:18.875Z,868.82
2018-01-04T10:52:18.939Z,868.80
2018-01-04T10:53:18.967Z,868.76
2018-01-04T10:54:18.959Z,868.79
2018-01-04T10:55:19.012Z,868.79
2018-01-04T10:56:19.078Z,868.83
2018-01-04T10:57:19.119Z,868.81
2018-01-04T10:58:19.135Z,868.79
2018-01-04T10:59:19.168Z,868.83
2018-01-04T11:00:19.178Z,868.83
2018-01-04T11:01:19.269Z,868.83
2018-01-04T11:02:19.266Z,868.81
2018-01-04T11:03:19.277Z,868.83
2018-01-04T11:04:19.327Z,868.82
2018-01-04T11:05:19.362Z,868.82
2018-01-04T11:06:19.372Z,868.82
2018-01-04T11:07:19.416Z,868.85
2018-01-04T11:08:19.475Z,868.84
2018-01-04T11:09:19.465Z,868.84
2018-01-04T11:10:19.527Z,868.86
2018-01-04T11:11:19.566Z,868.81
2018-01-04T11:12:19.575Z,868.86
2018-01-04T11:13:19.617Z,868.88
2018-01-04T11:14:19.678Z,868.86
2018-01-04T11:15:19.674Z,868.83
2018-01-04T11:16:19.732Z,868.85
2018-01-04T11:17:19.759Z,868.89
2018-01-04T11:18:19.768Z,868.90
2018-01-04T11:19:19.823Z,868.90
2018-01-04T11:20:19.866Z,868.89
2018-01-04T11:21:19.867Z,868.87
2018-01-04T11:22:19.922Z,868.92
2018-01-04T11:23:19.958Z,868.93
2018-01-04T11:24:19.964Z,868.94
2018-01-04T11:25:20.011Z,868.92
2018-01-04T11:26:20.052Z,868.93
2018-01-04T11:27:20.101Z,868.98
2018-01-04T11:28:20.129Z,868.93
2018-01-04T11:29:20.153Z,868.94
2018-01-04T11:30:20.194Z,868.90
2018-01-04T11:31:20.201Z,868.93
2018-01-04T11:32:20.263Z,868.91
2018-01-04T11:33:20.289Z,868.92
2018-01-04T11:34:20.303Z,868.93
2018-01-04T11:35:20.350Z,868.95
2018-01-04T11:36:20.402Z,868.97
2018-01-04T11:37:20.399Z,868.94
2018-01-04T11:38:20.464Z,868.96
2018-01-04T11:39:20.492Z,868.98
2018-01-04T11:40:20.508Z,868.93
2018-01-04T11:41:20.564Z,868.96
2018-01-04T11:42:20.592Z,868.94
2018-01-04T11:43:20.594Z,868.97
2018-01-04T11:44:20.659Z,868.94
2018-01-04T11:45:20.689Z,868.96
2018-01-04T11:46:20.695Z,868.91
2018-01-04T11:47:21.354Z,868.99
2018-01-04T11:48:21.005Z,868.97
2018-01-04T11:49:20.797Z,868.96
2018-01-04T11:50:21.150Z,868.99
2018-01-04T11:51:20.898Z,869.04
2018-01-04T11:53:21.088Z,868.99
2018-01-04T11:54:20.988Z,868.95
2018-01-04T11:55:21.035Z,869.04
2018-01-04T11:56:21.039Z,869.01
2018-01-04T11:57:21.080Z,869.03
2018-01-04T11:58:21.185Z,869.04
2018-01-04T11:59:21.328Z,869.07
2018-01-04T12:00:21.189Z,869.06
2018-01-04T12:01:21.455Z,869.09
2018-01-04T12:02:21.246Z,869.08
2018-01-04T12:03:21.293Z,869.14
2018-01-04T12:04:21.337Z,869.13
2018-01-04T12:05:21.336Z,869.14
2018-01-04T12:06:21.451Z,869.20
2018-01-04T12:07:21.621Z,869.22
2018-01-04T12:08:21.445Z,869.21
2018-01-04T12:09:21.484Z,869.19
2018-01-04T12:10:21.535Z,869.17
2018-01-04T12:11:21.538Z,869.18
2018-01-04T12:12:21.592Z,869.18
2018-01-04T12:13:21.643Z,869.20
2018-01-04T12:14:21.639Z,869.22
2018-01-04T12:15:21.691Z,869.22
2018-01-04T12:16:21.729Z,869.24
2018-01-04T12:17:21.747Z,869.25
2018-01-04T12:18:21.787Z,869.26
2018-01-04T12:19:21.826Z,869.25
2018-01-04T12:20:22.049Z,869.29
2018-01-04T12:21:22.076Z,869.33
2018-01-04T12:22:21.940Z,869.29
2018-01-04T12:23:21.936Z,869.32
2018-01-04T12:24:21.981Z,869.35
2018-01-04T12:25:22.034Z,869.30
2018-01-04T12:26:22.035Z,869.32
2018-01-04T12:27:22.096Z,869.37
2018-01-04T12:28:22.142Z,869.39
2018-01-04T12:29:22.142Z,869.39
2018-01-04T12:30:22.170Z,869.40
2018-01-04T12:31:22.212Z,869.44
2018-01-04T12:32:22.258Z,869.43
2018-01-04T12:33:22.276Z,869.46
2018-01-04T12:34:22.329Z,869.45
2018-01-04T12:35:22.373Z,869.46